sensor_id;sensor_type;location;lat;lon;timestamp;P1;durP1;ratioP1;P2;durP2;ratioP2
17598;SDS011;8918;52.092;5.232;2022-12-29T00:01:36;3.87;;;2.57;;
17598;SDS011;8918;52.092;5.232;2022-12-29T00:04:03;2.90;;;2.60;;
17598;SDS011;8918;52.092;5.232;2022-12-29T00:06:29;2.47;;;2.20;;
17598;SDS011;8918;52.092;5.232;2022-12-29T00:08:55;3.93;;;2.40;;
17598;SDS011;8918;52.092;5.232;2022-12-29T00:11:22;2.57;;;2.37;;
17598;SDS011;8918;52.092;5.232;2022-12-29T00:13:49;2.30;;;2.10;;
17598;SDS011;8918;52.092;5.232;2022-12-29T00:16:34;2.80;;;2.33;;
17598;SDS011;8918;52.092;5.232;2022-12-29T00:19:01;2.67;;;2.20;;
17598;SDS011;8918;52.092;5.232;2022-12-29T00:21:27;2.50;;;2.30;;
17598;SDS011;8918;52.092;5.232;2022-12-29T00:24:12;2.80;;;2.00;;
17598;SDS011;8918;52.092;5.232;2022-12-29T00:26:55;2.90;;;2.23;;
17598;SDS011;8918;52.092;5.232;2022-12-29T00:29:56;3.17;;;2.43;;
17598;SDS011;8918;52.092;5.232;2022-12-29T00:32:40;2.87;;;2.27;;
17598;SDS011;8918;52.092;5.232;2022-12-29T00:35:26;2.43;;;2.13;;
17598;SDS011;8918;52.092;5.232;2022-12-29T00:38:03;2.70;;;2.10;;
17598;SDS011;8918;52.092;5.232;2022-12-29T00:40:50;2.40;;;2.17;;
17598;SDS011;8918;52.092;5.232;2022-12-29T00:43:35;3.00;;;2.10;;
17598;SDS011;8918;52.092;5.232;2022-12-29T00:46:19;2.90;;;2.30;;
17598;SDS011;8918;52.092;5.232;2022-12-29T00:48:45;2.63;;;2.10;;
17598;SDS011;8918;52.092;5.232;2022-12-29T00:51:29;4.20;;;2.07;;
17598;SDS011;8918;52.092;5.232;2022-12-29T00:53:55;3.20;;;2.07;;
17598;SDS011;8918;52.092;5.232;2022-12-29T00:56:20;2.87;;;1.83;;
17598;SDS011;8918;52.092;5.232;2022-12-29T00:58:46;2.97;;;1.93;;
17598;SDS011;8918;52.092;5.232;2022-12-29T01:01:11;3.10;;;2.00;;
17598;SDS011;8918;52.092;5.232;2022-12-29T01:03:37;3.10;;;1.60;;
17598;SDS011;8918;52.092;5.232;2022-12-29T01:06:04;2.87;;;1.67;;
17598;SDS011;8918;52.092;5.232;2022-12-29T01:08:31;3.80;;;1.80;;
17598;SDS011;8918;52.092;5.232;2022-12-29T01:10:58;2.63;;;1.80;;
17598;SDS011;8918;52.092;5.232;2022-12-29T01:13:27;1.77;;;1.67;;
17598;SDS011;8918;52.092;5.232;2022-12-29T01:15:53;2.40;;;1.70;;
17598;SDS011;8918;52.092;5.232;2022-12-29T01:18:19;2.80;;;1.77;;
17598;SDS011;8918;52.092;5.232;2022-12-29T01:20:45;2.20;;;1.90;;
17598;SDS011;8918;52.092;5.232;2022-12-29T01:23:11;2.27;;;1.60;;
17598;SDS011;8918;52.092;5.232;2022-12-29T01:25:37;2.83;;;1.57;;
17598;SDS011;8918;52.092;5.232;2022-12-29T01:28:02;2.93;;;1.70;;
17598;SDS011;8918;52.092;5.232;2022-12-29T01:30:28;2.07;;;1.70;;
17598;SDS011;8918;52.092;5.232;2022-12-29T01:32:54;2.97;;;1.63;;
17598;SDS011;8918;52.092;5.232;2022-12-29T01:35:19;2.30;;;1.80;;
17598;SDS011;8918;52.092;5.232;2022-12-29T01:37:45;2.70;;;1.90;;
17598;SDS011;8918;52.092;5.232;2022-12-29T01:40:10;5.60;;;1.97;;
17598;SDS011;8918;52.092;5.232;2022-12-29T01:42:36;2.50;;;1.90;;
17598;SDS011;8918;52.092;5.232;2022-12-29T01:45:08;2.13;;;1.93;;
17598;SDS011;8918;52.092;5.232;2022-12-29T01:47:38;3.73;;;2.13;;
17598;SDS011;8918;52.092;5.232;2022-12-29T01:50:32;2.30;;;2.10;;
17598;SDS011;8918;52.092;5.232;2022-12-29T01:53:11;2.63;;;2.10;;
17598;SDS011;8918;52.092;5.232;2022-12-29T01:55:52;3.90;;;2.10;;
17598;SDS011;8918;52.092;5.232;2022-12-29T01:58:22;3.57;;;2.30;;
17598;SDS011;8918;52.092;5.232;2022-12-29T02:00:49;3.00;;;2.10;;
17598;SDS011;8918;52.092;5.232;2022-12-29T02:03:16;3.10;;;2.00;;
17598;SDS011;8918;52.092;5.232;2022-12-29T02:08:18;2.53;;;1.83;;
17598;SDS011;8918;52.092;5.232;2022-12-29T02:10:47;1.90;;;1.80;;
17598;SDS011;8918;52.092;5.232;2022-12-29T02:13:15;2.40;;;1.70;;
17598;SDS011;8918;52.092;5.232;2022-12-29T02:15:58;2.30;;;1.80;;
17598;SDS011;8918;52.092;5.232;2022-12-29T02:30:06;1.57;;;1.37;;
17598;SDS011;8918;52.092;5.232;2022-12-29T02:33:40;3.20;;;1.50;;
17598;SDS011;8918;52.092;5.232;2022-12-29T02:38:19;3.93;;;1.47;;
17598;SDS011;8918;52.092;5.232;2022-12-29T02:41:08;2.93;;;1.10;;
17598;SDS011;8918;52.092;5.232;2022-12-29T02:43:39;2.27;;;1.00;;
17598;SDS011;8918;52.092;5.232;2022-12-29T02:46:10;3.97;;;1.10;;
17598;SDS011;8918;52.092;5.232;2022-12-29T02:48:50;3.60;;;0.90;;
17598;SDS011;8918;52.092;5.232;2022-12-29T02:53:45;3.93;;;1.03;;
17598;SDS011;8918;52.092;5.232;2022-12-29T02:56:30;2.80;;;1.03;;
17598;SDS011;8918;52.092;5.232;2022-12-29T02:58:56;0.80;;;0.80;;
17598;SDS011;8918;52.092;5.232;2022-12-29T03:15:44;2.27;;;1.10;;
17598;SDS011;8918;52.092;5.232;2022-12-29T03:18:32;1.60;;;0.90;;
17598;SDS011;8918;52.092;5.232;2022-12-29T03:21:22;1.97;;;0.90;;
17598;SDS011;8918;52.092;5.232;2022-12-29T03:24:15;3.10;;;1.20;;
17598;SDS011;8918;52.092;5.232;2022-12-29T03:26:44;2.27;;;0.90;;
17598;SDS011;8918;52.092;5.232;2022-12-29T03:29:12;2.30;;;0.80;;
17598;SDS011;8918;52.092;5.232;2022-12-29T03:31:39;2.30;;;0.80;;
17598;SDS011;8918;52.092;5.232;2022-12-29T03:34:07;2.07;;;0.90;;
17598;SDS011;8918;52.092;5.232;2022-12-29T03:36:45;2.17;;;0.87;;
17598;SDS011;8918;52.092;5.232;2022-12-29T03:39:15;2.27;;;1.00;;
17598;SDS011;8918;52.092;5.232;2022-12-29T03:41:45;2.60;;;1.10;;
17598;SDS011;8918;52.092;5.232;2022-12-29T03:44:13;2.97;;;0.90;;
17598;SDS011;8918;52.092;5.232;2022-12-29T03:46:39;2.70;;;0.87;;
17598;SDS011;8918;52.092;5.232;2022-12-29T03:49:04;3.00;;;1.00;;
17598;SDS011;8918;52.092;5.232;2022-12-29T03:51:30;4.23;;;1.00;;
17598;SDS011;8918;52.092;5.232;2022-12-29T03:53:55;1.33;;;0.93;;
17598;SDS011;8918;52.092;5.232;2022-12-29T03:56:21;2.77;;;0.90;;
17598;SDS011;8918;52.092;5.232;2022-12-29T03:58:46;3.43;;;1.13;;
17598;SDS011;8918;52.092;5.232;2022-12-29T04:01:12;2.27;;;1.30;;
17598;SDS011;8918;52.092;5.232;2022-12-29T04:03:38;2.83;;;1.13;;
17598;SDS011;8918;52.092;5.232;2022-12-29T04:06:03;5.43;;;1.50;;
17598;SDS011;8918;52.092;5.232;2022-12-29T04:08:29;3.87;;;1.60;;
17598;SDS011;8918;52.092;5.232;2022-12-29T04:10:54;4.57;;;1.73;;
17598;SDS011;8918;52.092;5.232;2022-12-29T04:13:20;3.10;;;1.50;;
17598;SDS011;8918;52.092;5.232;2022-12-29T04:15:46;4.30;;;1.50;;
17598;SDS011;8918;52.092;5.232;2022-12-29T04:18:12;4.50;;;1.43;;
17598;SDS011;8918;52.092;5.232;2022-12-29T04:20:38;2.00;;;1.17;;
17598;SDS011;8918;52.092;5.232;2022-12-29T04:23:22;4.77;;;1.30;;
17598;SDS011;8918;52.092;5.232;2022-12-29T04:25:48;4.97;;;1.20;;
17598;SDS011;8918;52.092;5.232;2022-12-29T04:28:14;3.50;;;1.10;;
17598;SDS011;8918;52.092;5.232;2022-12-29T04:30:40;5.03;;;1.63;;
17598;SDS011;8918;52.092;5.232;2022-12-29T04:33:07;4.83;;;1.37;;
17598;SDS011;8918;52.092;5.232;2022-12-29T04:35:33;6.57;;;1.50;;
17598;SDS011;8918;52.092;5.232;2022-12-29T04:37:58;5.33;;;1.53;;
17598;SDS011;8918;52.092;5.232;2022-12-29T04:40:24;5.60;;;1.57;;
17598;SDS011;8918;52.092;5.232;2022-12-29T04:42:49;8.20;;;1.70;;
17598;SDS011;8918;52.092;5.232;2022-12-29T04:45:15;4.23;;;1.30;;
17598;SDS011;8918;52.092;5.232;2022-12-29T04:47:41;4.03;;;1.10;;
17598;SDS011;8918;52.092;5.232;2022-12-29T04:50:06;5.87;;;1.57;;
17598;SDS011;8918;52.092;5.232;2022-12-29T04:52:32;5.33;;;1.50;;
17598;SDS011;8918;52.092;5.232;2022-12-29T04:54:58;6.67;;;1.30;;
17598;SDS011;8918;52.092;5.232;2022-12-29T04:57:24;4.03;;;1.20;;
17598;SDS011;8918;52.092;5.232;2022-12-29T04:59:49;8.93;;;1.33;;
17598;SDS011;8918;52.092;5.232;2022-12-29T05:02:15;5.53;;;1.70;;
17598;SDS011;8918;52.092;5.232;2022-12-29T05:04:41;6.07;;;1.50;;
17598;SDS011;8918;52.092;5.232;2022-12-29T05:07:07;8.77;;;1.60;;
17598;SDS011;8918;52.092;5.232;2022-12-29T05:09:32;8.40;;;1.50;;
17598;SDS011;8918;52.092;5.232;2022-12-29T05:11:58;10.87;;;1.90;;
17598;SDS011;8918;52.092;5.232;2022-12-29T05:14:24;5.20;;;1.67;;
17598;SDS011;8918;52.092;5.232;2022-12-29T05:16:49;8.33;;;1.97;;
17598;SDS011;8918;52.092;5.232;2022-12-29T05:19:15;7.17;;;1.50;;
17598;SDS011;8918;52.092;5.232;2022-12-29T05:21:41;8.93;;;2.07;;
17598;SDS011;8918;52.092;5.232;2022-12-29T05:24:07;6.80;;;1.47;;
17598;SDS011;8918;52.092;5.232;2022-12-29T05:26:33;8.97;;;1.87;;
17598;SDS011;8918;52.092;5.232;2022-12-29T05:28:59;9.67;;;1.90;;
17598;SDS011;8918;52.092;5.232;2022-12-29T05:31:25;6.03;;;2.07;;
17598;SDS011;8918;52.092;5.232;2022-12-29T05:33:51;7.13;;;1.57;;
17598;SDS011;8918;52.092;5.232;2022-12-29T05:36:16;8.67;;;1.77;;
17598;SDS011;8918;52.092;5.232;2022-12-29T05:38:42;6.67;;;1.70;;
17598;SDS011;8918;52.092;5.232;2022-12-29T05:41:08;10.60;;;2.10;;
17598;SDS011;8918;52.092;5.232;2022-12-29T05:43:34;8.97;;;1.87;;
17598;SDS011;8918;52.092;5.232;2022-12-29T05:46:00;7.20;;;1.60;;
17598;SDS011;8918;52.092;5.232;2022-12-29T05:48:25;6.50;;;1.57;;
17598;SDS011;8918;52.092;5.232;2022-12-29T05:50:51;7.20;;;1.70;;
17598;SDS011;8918;52.092;5.232;2022-12-29T05:53:17;9.57;;;1.90;;
17598;SDS011;8918;52.092;5.232;2022-12-29T05:55:43;6.10;;;1.40;;
17598;SDS011;8918;52.092;5.232;2022-12-29T05:58:10;5.30;;;1.40;;
17598;SDS011;8918;52.092;5.232;2022-12-29T06:00:36;7.90;;;1.80;;
17598;SDS011;8918;52.092;5.232;2022-12-29T06:03:02;10.37;;;1.50;;
17598;SDS011;8918;52.092;5.232;2022-12-29T06:05:27;10.13;;;2.13;;
17598;SDS011;8918;52.092;5.232;2022-12-29T06:07:53;7.40;;;1.60;;
17598;SDS011;8918;52.092;5.232;2022-12-29T06:10:18;7.87;;;1.97;;
17598;SDS011;8918;52.092;5.232;2022-12-29T06:12:44;9.33;;;2.20;;
17598;SDS011;8918;52.092;5.232;2022-12-29T06:15:10;11.17;;;2.23;;
17598;SDS011;8918;52.092;5.232;2022-12-29T06:17:35;10.80;;;1.67;;
17598;SDS011;8918;52.092;5.232;2022-12-29T06:20:01;6.37;;;1.83;;
17598;SDS011;8918;52.092;5.232;2022-12-29T06:22:27;7.33;;;2.10;;
17598;SDS011;8918;52.092;5.232;2022-12-29T06:24:53;7.53;;;1.87;;
17598;SDS011;8918;52.092;5.232;2022-12-29T06:27:18;10.43;;;2.07;;
17598;SDS011;8918;52.092;5.232;2022-12-29T06:29:44;9.60;;;1.80;;
17598;SDS011;8918;52.092;5.232;2022-12-29T06:32:10;10.47;;;2.30;;
17598;SDS011;8918;52.092;5.232;2022-12-29T06:34:35;8.90;;;2.20;;
17598;SDS011;8918;52.092;5.232;2022-12-29T06:37:01;10.43;;;1.97;;
17598;SDS011;8918;52.092;5.232;2022-12-29T06:39:27;9.67;;;1.93;;
17598;SDS011;8918;52.092;5.232;2022-12-29T06:41:53;11.80;;;2.20;;
17598;SDS011;8918;52.092;5.232;2022-12-29T06:44:22;6.83;;;1.90;;
17598;SDS011;8918;52.092;5.232;2022-12-29T06:46:48;7.63;;;1.97;;
17598;SDS011;8918;52.092;5.232;2022-12-29T06:49:14;6.53;;;1.87;;
17598;SDS011;8918;52.092;5.232;2022-12-29T06:51:39;12.00;;;2.40;;
17598;SDS011;8918;52.092;5.232;2022-12-29T06:54:05;7.13;;;1.67;;
17598;SDS011;8918;52.092;5.232;2022-12-29T06:56:31;8.67;;;2.47;;
17598;SDS011;8918;52.092;5.232;2022-12-29T06:58:56;8.33;;;1.87;;
17598;SDS011;8918;52.092;5.232;2022-12-29T07:01:25;8.10;;;2.00;;
17598;SDS011;8918;52.092;5.232;2022-12-29T07:03:50;11.93;;;2.13;;
17598;SDS011;8918;52.092;5.232;2022-12-29T07:06:16;10.83;;;2.37;;
17598;SDS011;8918;52.092;5.232;2022-12-29T07:08:41;7.77;;;1.93;;
17598;SDS011;8918;52.092;5.232;2022-12-29T07:11:07;12.97;;;1.97;;
17598;SDS011;8918;52.092;5.232;2022-12-29T07:13:33;9.60;;;1.97;;
17598;SDS011;8918;52.092;5.232;2022-12-29T07:16:06;10.00;;;1.70;;
17598;SDS011;8918;52.092;5.232;2022-12-29T07:18:32;6.87;;;1.60;;
17598;SDS011;8918;52.092;5.232;2022-12-29T07:20:59;6.27;;;1.43;;
17598;SDS011;8918;52.092;5.232;2022-12-29T07:23:24;9.30;;;1.70;;
17598;SDS011;8918;52.092;5.232;2022-12-29T07:25:58;8.13;;;2.20;;
17598;SDS011;8918;52.092;5.232;2022-12-29T07:28:24;11.20;;;1.90;;
17598;SDS011;8918;52.092;5.232;2022-12-29T07:30:50;6.33;;;1.70;;
17598;SDS011;8918;52.092;5.232;2022-12-29T07:33:15;5.07;;;1.93;;
17598;SDS011;8918;52.092;5.232;2022-12-29T07:35:41;5.17;;;1.60;;
17598;SDS011;8918;52.092;5.232;2022-12-29T07:38:06;6.03;;;1.77;;
17598;SDS011;8918;52.092;5.232;2022-12-29T07:40:32;8.80;;;1.97;;
17598;SDS011;8918;52.092;5.232;2022-12-29T07:42:57;6.90;;;1.90;;
17598;SDS011;8918;52.092;5.232;2022-12-29T07:45:23;7.77;;;1.90;;
17598;SDS011;8918;52.092;5.232;2022-12-29T07:47:49;7.17;;;2.00;;
17598;SDS011;8918;52.092;5.232;2022-12-29T07:50:15;8.33;;;2.20;;
17598;SDS011;8918;52.092;5.232;2022-12-29T07:52:40;8.13;;;2.10;;
17598;SDS011;8918;52.092;5.232;2022-12-29T07:55:06;5.63;;;1.93;;
17598;SDS011;8918;52.092;5.232;2022-12-29T07:57:32;6.27;;;2.00;;
17598;SDS011;8918;52.092;5.232;2022-12-29T07:59:58;6.50;;;1.90;;
17598;SDS011;8918;52.092;5.232;2022-12-29T08:02:23;7.33;;;1.70;;
17598;SDS011;8918;52.092;5.232;2022-12-29T08:04:51;9.37;;;2.30;;
17598;SDS011;8918;52.092;5.232;2022-12-29T08:07:16;7.77;;;1.93;;
17598;SDS011;8918;52.092;5.232;2022-12-29T08:09:42;8.10;;;1.90;;
17598;SDS011;8918;52.092;5.232;2022-12-29T08:12:08;10.20;;;2.20;;
17598;SDS011;8918;52.092;5.232;2022-12-29T08:14:36;10.23;;;2.43;;
17598;SDS011;8918;52.092;5.232;2022-12-29T08:17:02;13.30;;;2.33;;
17598;SDS011;8918;52.092;5.232;2022-12-29T08:19:27;6.73;;;2.00;;
17598;SDS011;8918;52.092;5.232;2022-12-29T08:21:53;11.63;;;2.20;;
17598;SDS011;8918;52.092;5.232;2022-12-29T08:24:19;8.73;;;2.00;;
17598;SDS011;8918;52.092;5.232;2022-12-29T08:26:44;11.33;;;2.20;;
17598;SDS011;8918;52.092;5.232;2022-12-29T08:29:10;8.67;;;2.07;;
17598;SDS011;8918;52.092;5.232;2022-12-29T08:31:36;10.20;;;2.20;;
17598;SDS011;8918;52.092;5.232;2022-12-29T08:34:01;9.97;;;2.03;;
17598;SDS011;8918;52.092;5.232;2022-12-29T08:36:28;12.97;;;2.37;;
17598;SDS011;8918;52.092;5.232;2022-12-29T08:38:55;7.03;;;2.00;;
17598;SDS011;8918;52.092;5.232;2022-12-29T08:41:20;14.03;;;2.47;;
17598;SDS011;8918;52.092;5.232;2022-12-29T08:43:46;9.77;;;2.23;;
17598;SDS011;8918;52.092;5.232;2022-12-29T08:46:13;11.63;;;2.37;;
17598;SDS011;8918;52.092;5.232;2022-12-29T08:48:38;8.87;;;2.63;;
17598;SDS011;8918;52.092;5.232;2022-12-29T08:51:05;11.40;;;2.23;;
17598;SDS011;8918;52.092;5.232;2022-12-29T08:53:31;10.30;;;2.20;;
17598;SDS011;8918;52.092;5.232;2022-12-29T08:55:57;9.57;;;2.07;;
17598;SDS011;8918;52.092;5.232;2022-12-29T08:58:24;8.30;;;2.10;;
17598;SDS011;8918;52.092;5.232;2022-12-29T09:00:52;9.07;;;1.93;;
17598;SDS011;8918;52.092;5.232;2022-12-29T09:03:18;10.27;;;2.20;;
17598;SDS011;8918;52.092;5.232;2022-12-29T09:05:47;8.30;;;2.00;;
17598;SDS011;8918;52.092;5.232;2022-12-29T09:08:16;7.00;;;2.00;;
17598;SDS011;8918;52.092;5.232;2022-12-29T09:10:43;9.57;;;2.23;;
17598;SDS011;8918;52.092;5.232;2022-12-29T09:13:10;11.57;;;2.10;;
17598;SDS011;8918;52.092;5.232;2022-12-29T09:15:36;8.27;;;1.83;;
17598;SDS011;8918;52.092;5.232;2022-12-29T09:18:02;9.23;;;2.20;;
17598;SDS011;8918;52.092;5.232;2022-12-29T09:20:28;12.13;;;2.67;;
17598;SDS011;8918;52.092;5.232;2022-12-29T09:22:54;5.40;;;1.80;;
17598;SDS011;8918;52.092;5.232;2022-12-29T09:25:19;6.33;;;2.00;;
17598;SDS011;8918;52.092;5.232;2022-12-29T09:27:47;10.27;;;2.57;;
17598;SDS011;8918;52.092;5.232;2022-12-29T09:30:13;10.17;;;2.10;;
17598;SDS011;8918;52.092;5.232;2022-12-29T09:32:39;8.53;;;2.20;;
17598;SDS011;8918;52.092;5.232;2022-12-29T09:35:05;9.70;;;2.23;;
17598;SDS011;8918;52.092;5.232;2022-12-29T09:37:31;8.80;;;2.07;;
17598;SDS011;8918;52.092;5.232;2022-12-29T09:39:57;7.50;;;2.07;;
17598;SDS011;8918;52.092;5.232;2022-12-29T09:42:24;7.23;;;1.83;;
17598;SDS011;8918;52.092;5.232;2022-12-29T09:45:14;11.47;;;1.90;;
17598;SDS011;8918;52.092;5.232;2022-12-29T09:47:41;9.70;;;2.27;;
17598;SDS011;8918;52.092;5.232;2022-12-29T09:52:50;10.83;;;2.20;;
17598;SDS011;8918;52.092;5.232;2022-12-29T09:55:23;8.03;;;1.90;;
17598;SDS011;8918;52.092;5.232;2022-12-29T09:57:58;9.33;;;2.37;;
17598;SDS011;8918;52.092;5.232;2022-12-29T10:00:36;5.30;;;1.53;;
17598;SDS011;8918;52.092;5.232;2022-12-29T10:03:18;6.00;;;2.10;;
17598;SDS011;8918;52.092;5.232;2022-12-29T10:08:37;9.97;;;2.03;;
17598;SDS011;8918;52.092;5.232;2022-12-29T10:19:33;6.43;;;1.90;;
17598;SDS011;8918;52.092;5.232;2022-12-29T10:25:02;8.23;;;2.17;;
17598;SDS011;8918;52.092;5.232;2022-12-29T10:27:39;7.50;;;1.70;;
17598;SDS011;8918;52.092;5.232;2022-12-29T10:30:11;9.43;;;2.20;;
17598;SDS011;8918;52.092;5.232;2022-12-29T10:32:48;8.47;;;2.17;;
17598;SDS011;8918;52.092;5.232;2022-12-29T10:35:19;9.10;;;2.00;;
17598;SDS011;8918;52.092;5.232;2022-12-29T10:43:49;12.53;;;2.97;;
17598;SDS011;8918;52.092;5.232;2022-12-29T10:46:19;15.87;;;3.33;;
17598;SDS011;8918;52.092;5.232;2022-12-29T10:48:53;13.70;;;3.33;;
17598;SDS011;8918;52.092;5.232;2022-12-29T10:51:27;13.23;;;3.70;;
17598;SDS011;8918;52.092;5.232;2022-12-29T10:54:15;14.53;;;3.53;;
17598;SDS011;8918;52.092;5.232;2022-12-29T10:56:50;18.43;;;4.20;;
17598;SDS011;8918;52.092;5.232;2022-12-29T10:59:24;14.33;;;3.50;;
17598;SDS011;8918;52.092;5.232;2022-12-29T11:04:42;12.67;;;3.57;;
17598;SDS011;8918;52.092;5.232;2022-12-29T11:07:27;12.23;;;3.27;;
17598;SDS011;8918;52.092;5.232;2022-12-29T11:09:55;15.87;;;3.70;;
17598;SDS011;8918;52.092;5.232;2022-12-29T11:12:40;15.23;;;3.67;;
17598;SDS011;8918;52.092;5.232;2022-12-29T11:17:42;10.97;;;3.13;;
17598;SDS011;8918;52.092;5.232;2022-12-29T11:22:59;19.57;;;3.97;;
17598;SDS011;8918;52.092;5.232;2022-12-29T11:25:25;18.37;;;3.47;;
17598;SDS011;8918;52.092;5.232;2022-12-29T11:28:03;13.73;;;3.40;;
17598;SDS011;8918;52.092;5.232;2022-12-29T11:30:40;13.33;;;3.50;;
17598;SDS011;8918;52.092;5.232;2022-12-29T11:33:05;15.20;;;3.73;;
17598;SDS011;8918;52.092;5.232;2022-12-29T11:38:18;8.90;;;3.10;;
17598;SDS011;8918;52.092;5.232;2022-12-29T11:40:46;13.77;;;3.30;;
17598;SDS011;8918;52.092;5.232;2022-12-29T11:43:23;12.10;;;2.93;;
17598;SDS011;8918;52.092;5.232;2022-12-29T11:45:58;16.07;;;3.50;;
17598;SDS011;8918;52.092;5.232;2022-12-29T11:48:25;15.57;;;3.50;;
17598;SDS011;8918;52.092;5.232;2022-12-29T11:50:57;12.13;;;3.50;;
17598;SDS011;8918;52.092;5.232;2022-12-29T11:53:28;13.27;;;3.90;;
17598;SDS011;8918;52.092;5.232;2022-12-29T11:56:02;16.03;;;3.50;;
17598;SDS011;8918;52.092;5.232;2022-12-29T11:58:31;16.43;;;4.40;;
17598;SDS011;8918;52.092;5.232;2022-12-29T12:01:13;19.37;;;3.60;;
17598;SDS011;8918;52.092;5.232;2022-12-29T12:06:42;16.60;;;3.57;;
17598;SDS011;8918;52.092;5.232;2022-12-29T12:16:02;19.70;;;4.20;;
17598;SDS011;8918;52.092;5.232;2022-12-29T12:18:46;14.17;;;4.40;;
17598;SDS011;8918;52.092;5.232;2022-12-29T12:21:31;16.83;;;3.97;;
17598;SDS011;8918;52.092;5.232;2022-12-29T12:24:16;19.27;;;3.80;;
17598;SDS011;8918;52.092;5.232;2022-12-29T12:32:16;16.73;;;3.93;;
17598;SDS011;8918;52.092;5.232;2022-12-29T12:34:59;13.73;;;4.03;;
17598;SDS011;8918;52.092;5.232;2022-12-29T12:37:44;14.47;;;3.57;;
17598;SDS011;8918;52.092;5.232;2022-12-29T12:40:26;19.73;;;4.27;;
17598;SDS011;8918;52.092;5.232;2022-12-29T12:46:10;12.67;;;3.20;;
17598;SDS011;8918;52.092;5.232;2022-12-29T12:48:57;21.20;;;4.20;;
17598;SDS011;8918;52.092;5.232;2022-12-29T12:51:41;16.43;;;3.10;;
17598;SDS011;8918;52.092;5.232;2022-12-29T12:57:22;12.23;;;3.13;;
17598;SDS011;8918;52.092;5.232;2022-12-29T13:00:04;9.17;;;2.70;;
17598;SDS011;8918;52.092;5.232;2022-12-29T13:10:42;11.07;;;3.10;;
17598;SDS011;8918;52.092;5.232;2022-12-29T13:16:31;13.30;;;2.93;;
17598;SDS011;8918;52.092;5.232;2022-12-29T13:32:55;14.57;;;3.67;;
17598;SDS011;8918;52.092;5.232;2022-12-29T13:38:19;13.70;;;3.30;;
17598;SDS011;8918;52.092;5.232;2022-12-29T13:40:47;12.23;;;4.03;;
17598;SDS011;8918;52.092;5.232;2022-12-29T13:43:18;14.97;;;3.33;;
17598;SDS011;8918;52.092;5.232;2022-12-29T13:45:46;11.90;;;3.43;;
17598;SDS011;8918;52.092;5.232;2022-12-29T13:48:26;11.27;;;3.70;;
17598;SDS011;8918;52.092;5.232;2022-12-29T13:51:08;13.50;;;3.27;;
17598;SDS011;8918;52.092;5.232;2022-12-29T13:56:17;13.30;;;3.33;;
17598;SDS011;8918;52.092;5.232;2022-12-29T13:59:03;15.87;;;3.40;;
17598;SDS011;8918;52.092;5.232;2022-12-29T14:04:28;11.70;;;2.53;;
17598;SDS011;8918;52.092;5.232;2022-12-29T14:07:05;8.97;;;2.40;;
17598;SDS011;8918;52.092;5.232;2022-12-29T14:09:50;9.00;;;2.00;;
17598;SDS011;8918;52.092;5.232;2022-12-29T14:12:39;5.50;;;1.40;;
17598;SDS011;8918;52.092;5.232;2022-12-29T14:15:06;6.10;;;1.87;;
17598;SDS011;8918;52.092;5.232;2022-12-29T14:17:44;6.73;;;1.50;;
17598;SDS011;8918;52.092;5.232;2022-12-29T14:20:24;5.13;;;1.60;;
17598;SDS011;8918;52.092;5.232;2022-12-29T14:22:55;6.93;;;1.40;;
17598;SDS011;8918;52.092;5.232;2022-12-29T14:28:34;7.93;;;1.63;;
17598;SDS011;8918;52.092;5.232;2022-12-29T14:31:03;5.67;;;1.33;;
17598;SDS011;8918;52.092;5.232;2022-12-29T14:33:33;3.73;;;1.43;;
17598;SDS011;8918;52.092;5.232;2022-12-29T14:38:48;4.90;;;1.60;;
17598;SDS011;8918;52.092;5.232;2022-12-29T14:43:53;5.50;;;1.67;;
17598;SDS011;8918;52.092;5.232;2022-12-29T14:46:24;10.53;;;7.83;;
17598;SDS011;8918;52.092;5.232;2022-12-29T14:48:54;4.93;;;2.10;;
17598;SDS011;8918;52.092;5.232;2022-12-29T14:51:31;6.80;;;1.63;;
17598;SDS011;8918;52.092;5.232;2022-12-29T14:54:00;33.43;;;21.63;;
17598;SDS011;8918;52.092;5.232;2022-12-29T14:57:19;11.10;;;3.83;;
17598;SDS011;8918;52.092;5.232;2022-12-29T14:59:47;14.37;;;7.13;;
17598;SDS011;8918;52.092;5.232;2022-12-29T15:02:19;9.97;;;3.53;;
17598;SDS011;8918;52.092;5.232;2022-12-29T15:04:47;12.73;;;5.93;;
17598;SDS011;8918;52.092;5.232;2022-12-29T15:07:13;10.47;;;3.30;;
17598;SDS011;8918;52.092;5.232;2022-12-29T15:09:41;16.87;;;7.00;;
17598;SDS011;8918;52.092;5.232;2022-12-29T15:14:52;9.10;;;2.40;;
17598;SDS011;8918;52.092;5.232;2022-12-29T15:17:26;10.57;;;4.73;;
17598;SDS011;8918;52.092;5.232;2022-12-29T15:19:53;10.07;;;2.30;;
17598;SDS011;8918;52.092;5.232;2022-12-29T15:22:20;8.23;;;2.50;;
17598;SDS011;8918;52.092;5.232;2022-12-29T15:24:47;11.23;;;2.60;;
17598;SDS011;8918;52.092;5.232;2022-12-29T15:27:19;7.57;;;2.03;;
17598;SDS011;8918;52.092;5.232;2022-12-29T15:29:46;7.63;;;2.60;;
17598;SDS011;8918;52.092;5.232;2022-12-29T15:34:42;9.43;;;2.40;;
17598;SDS011;8918;52.092;5.232;2022-12-29T15:37:15;9.43;;;2.23;;
17598;SDS011;8918;52.092;5.232;2022-12-29T15:39:49;6.60;;;2.13;;
17598;SDS011;8918;52.092;5.232;2022-12-29T15:42:23;8.20;;;2.50;;
17598;SDS011;8918;52.092;5.232;2022-12-29T15:44:50;12.83;;;2.93;;
17598;SDS011;8918;52.092;5.232;2022-12-29T15:47:17;6.17;;;2.33;;
17598;SDS011;8918;52.092;5.232;2022-12-29T15:49:49;8.20;;;2.20;;
17598;SDS011;8918;52.092;5.232;2022-12-29T15:52:18;8.00;;;2.10;;
17598;SDS011;8918;52.092;5.232;2022-12-29T15:54:45;7.93;;;2.43;;
17598;SDS011;8918;52.092;5.232;2022-12-29T15:57:21;7.47;;;2.33;;
17598;SDS011;8918;52.092;5.232;2022-12-29T15:59:51;7.47;;;2.77;;
17598;SDS011;8918;52.092;5.232;2022-12-29T16:02:18;11.70;;;2.80;;
17598;SDS011;8918;52.092;5.232;2022-12-29T16:04:46;9.40;;;2.40;;
17598;SDS011;8918;52.092;5.232;2022-12-29T16:07:30;11.20;;;2.70;;
17598;SDS011;8918;52.092;5.232;2022-12-29T16:09:58;4.53;;;2.03;;
17598;SDS011;8918;52.092;5.232;2022-12-29T16:12:35;8.30;;;2.60;;
17598;SDS011;8918;52.092;5.232;2022-12-29T16:15:05;6.13;;;2.00;;
17598;SDS011;8918;52.092;5.232;2022-12-29T16:17:41;7.03;;;2.53;;
17598;SDS011;8918;52.092;5.232;2022-12-29T16:20:19;9.73;;;2.20;;
17598;SDS011;8918;52.092;5.232;2022-12-29T16:22:52;5.47;;;2.00;;
17598;SDS011;8918;52.092;5.232;2022-12-29T16:25:31;6.50;;;1.77;;
17598;SDS011;8918;52.092;5.232;2022-12-29T16:27:59;5.43;;;2.00;;
17598;SDS011;8918;52.092;5.232;2022-12-29T16:30:28;5.67;;;2.10;;
17598;SDS011;8918;52.092;5.232;2022-12-29T16:32:56;6.60;;;1.80;;
17598;SDS011;8918;52.092;5.232;2022-12-29T16:38:14;5.63;;;1.73;;
17598;SDS011;8918;52.092;5.232;2022-12-29T16:41:00;5.57;;;1.67;;
17598;SDS011;8918;52.092;5.232;2022-12-29T16:50:52;7.73;;;1.63;;
17598;SDS011;8918;52.092;5.232;2022-12-29T16:53:37;6.73;;;1.57;;
17598;SDS011;8918;52.092;5.232;2022-12-29T16:56:09;9.10;;;2.10;;
17598;SDS011;8918;52.092;5.232;2022-12-29T16:58:51;7.07;;;1.70;;
17598;SDS011;8918;52.092;5.232;2022-12-29T17:01:43;7.63;;;1.90;;
17598;SDS011;8918;52.092;5.232;2022-12-29T17:04:09;8.23;;;1.63;;
17598;SDS011;8918;52.092;5.232;2022-12-29T17:06:37;5.90;;;1.63;;
17598;SDS011;8918;52.092;5.232;2022-12-29T17:09:15;10.23;;;2.33;;
17598;SDS011;8918;52.092;5.232;2022-12-29T17:11:41;7.97;;;1.80;;
17598;SDS011;8918;52.092;5.232;2022-12-29T17:14:20;6.43;;;1.70;;
17598;SDS011;8918;52.092;5.232;2022-12-29T17:16:58;9.50;;;2.17;;
17598;SDS011;8918;52.092;5.232;2022-12-29T17:19:28;8.33;;;2.03;;
17598;SDS011;8918;52.092;5.232;2022-12-29T17:21:55;8.17;;;2.43;;
17598;SDS011;8918;52.092;5.232;2022-12-29T17:24:21;8.20;;;2.43;;
17598;SDS011;8918;52.092;5.232;2022-12-29T17:26:48;8.47;;;2.10;;
17598;SDS011;8918;52.092;5.232;2022-12-29T17:29:22;8.40;;;2.47;;
17598;SDS011;8918;52.092;5.232;2022-12-29T17:31:57;8.20;;;2.37;;
17598;SDS011;8918;52.092;5.232;2022-12-29T17:34:24;8.30;;;1.93;;
17598;SDS011;8918;52.092;5.232;2022-12-29T17:36:50;12.67;;;2.07;;
17598;SDS011;8918;52.092;5.232;2022-12-29T17:39:15;8.17;;;2.43;;
17598;SDS011;8918;52.092;5.232;2022-12-29T17:41:41;9.93;;;2.57;;
17598;SDS011;8918;52.092;5.232;2022-12-29T17:44:08;10.40;;;2.20;;